sensor_id;sensor_type;location;lat;lon;timestamp;P1;durP1;ratioP1;P2;durP2;ratioP2
6640;SDS011;3356;49.360;8.266;2022-10-16T00:01:42;3.07;;;2.07;;
6640;SDS011;3356;49.360;8.266;2022-10-16T00:03:44;7.07;;;2.27;;
6640;SDS011;3356;49.360;8.266;2022-10-16T00:05:46;1.93;;;1.83;;
6640;SDS011;3356;49.360;8.266;2022-10-16T00:07:47;4.23;;;2.43;;
6640;SDS011;3356;49.360;8.266;2022-10-16T00:09:48;3.23;;;1.93;;
6640;SDS011;3356;49.360;8.266;2022-10-16T00:11:49;5.77;;;2.57;;
6640;SDS011;3356;49.360;8.266;2022-10-16T00:13:51;5.03;;;2.10;;
6640;SDS011;3356;49.360;8.266;2022-10-16T00:15:56;2.10;;;1.83;;
6640;SDS011;3356;49.360;8.266;2022-10-16T00:17:58;2.10;;;1.70;;
6640;SDS011;3356;49.360;8.266;2022-10-16T00:19:59;1.80;;;1.70;;
6640;SDS011;3356;49.360;8.266;2022-10-16T00:22:00;4.03;;;2.03;;
6640;SDS011;3356;49.360;8.266;2022-10-16T00:24:05;5.77;;;1.90;;
6640;SDS011;3356;49.360;8.266;2022-10-16T00:26:12;3.20;;;2.10;;
6640;SDS011;3356;49.360;8.266;2022-10-16T00:28:15;2.60;;;1.90;;
6640;SDS011;3356;49.360;8.266;2022-10-16T00:30:16;2.17;;;2.03;;
6640;SDS011;3356;49.360;8.266;2022-10-16T00:32:20;3.07;;;1.50;;
6640;SDS011;3356;49.360;8.266;2022-10-16T00:34:21;3.20;;;1.70;;
6640;SDS011;3356;49.360;8.266;2022-10-16T00:36:23;3.50;;;1.80;;
6640;SDS011;3356;49.360;8.266;2022-10-16T00:38:25;3.17;;;2.27;;
6640;SDS011;3356;49.360;8.266;2022-10-16T00:40:27;4.83;;;1.97;;
6640;SDS011;3356;49.360;8.266;2022-10-16T00:42:28;2.17;;;1.93;;
6640;SDS011;3356;49.360;8.266;2022-10-16T00:46:47;4.10;;;1.37;;
6640;SDS011;3356;49.360;8.266;2022-10-16T00:49:06;4.30;;;1.77;;
6640;SDS011;3356;49.360;8.266;2022-10-16T00:51:10;2.90;;;1.70;;
6640;SDS011;3356;49.360;8.266;2022-10-16T00:53:11;2.73;;;1.80;;
6640;SDS011;3356;49.360;8.266;2022-10-16T00:55:13;4.67;;;1.50;;
6640;SDS011;3356;49.360;8.266;2022-10-16T00:57:15;3.10;;;1.60;;
6640;SDS011;3356;49.360;8.266;2022-10-16T00:59:18;4.30;;;2.23;;
6640;SDS011;3356;49.360;8.266;2022-10-16T01:01:25;1.63;;;1.53;;
6640;SDS011;3356;49.360;8.266;2022-10-16T01:03:28;4.53;;;1.93;;
6640;SDS011;3356;49.360;8.266;2022-10-16T01:05:44;2.37;;;1.60;;
6640;SDS011;3356;49.360;8.266;2022-10-16T01:08:01;1.97;;;1.67;;
6640;SDS011;3356;49.360;8.266;2022-10-16T01:12:40;4.40;;;1.60;;
6640;SDS011;3356;49.360;8.266;2022-10-16T01:14:57;3.23;;;2.03;;
6640;SDS011;3356;49.360;8.266;2022-10-16T01:17:16;6.50;;;2.13;;
6640;SDS011;3356;49.360;8.266;2022-10-16T01:21:36;1.43;;;1.33;;
6640;SDS011;3356;49.360;8.266;2022-10-16T01:26:24;8.30;;;2.33;;
6640;SDS011;3356;49.360;8.266;2022-10-16T01:28:27;1.90;;;1.80;;
6640;SDS011;3356;49.360;8.266;2022-10-16T01:30:37;8.40;;;2.53;;
6640;SDS011;3356;49.360;8.266;2022-10-16T01:32:41;3.73;;;1.83;;
6640;SDS011;3356;49.360;8.266;2022-10-16T01:34:54;2.83;;;1.80;;
6640;SDS011;3356;49.360;8.266;2022-10-16T01:37:05;4.37;;;1.93;;
6640;SDS011;3356;49.360;8.266;2022-10-16T01:39:12;2.10;;;1.73;;
6640;SDS011;3356;49.360;8.266;2022-10-16T01:41:17;3.10;;;2.17;;
6640;SDS011;3356;49.360;8.266;2022-10-16T01:43:26;3.63;;;2.10;;
6640;SDS011;3356;49.360;8.266;2022-10-16T01:45:34;2.60;;;2.27;;
6640;SDS011;3356;49.360;8.266;2022-10-16T01:47:36;4.13;;;1.77;;
6640;SDS011;3356;49.360;8.266;2022-10-16T01:49:39;3.53;;;1.70;;
6640;SDS011;3356;49.360;8.266;2022-10-16T01:51:43;5.37;;;1.83;;
6640;SDS011;3356;49.360;8.266;2022-10-16T01:53:48;4.13;;;1.73;;
6640;SDS011;3356;49.360;8.266;2022-10-16T01:55:53;9.93;;;2.50;;
6640;SDS011;3356;49.360;8.266;2022-10-16T01:57:58;4.20;;;1.93;;
6640;SDS011;3356;49.360;8.266;2022-10-16T02:00:03;4.53;;;2.03;;
6640;SDS011;3356;49.360;8.266;2022-10-16T02:02:13;3.40;;;2.20;;
6640;SDS011;3356;49.360;8.266;2022-10-16T02:06:42;4.17;;;1.77;;
6640;SDS011;3356;49.360;8.266;2022-10-16T02:08:43;3.40;;;1.90;;
6640;SDS011;3356;49.360;8.266;2022-10-16T02:10:45;7.67;;;2.83;;
6640;SDS011;3356;49.360;8.266;2022-10-16T02:12:57;4.47;;;2.00;;
6640;SDS011;3356;49.360;8.266;2022-10-16T02:15:19;2.27;;;2.07;;
6640;SDS011;3356;49.360;8.266;2022-10-16T02:17:20;4.57;;;1.90;;
6640;SDS011;3356;49.360;8.266;2022-10-16T02:19:22;8.47;;;2.03;;
6640;SDS011;3356;49.360;8.266;2022-10-16T02:21:28;3.40;;;1.53;;
6640;SDS011;3356;49.360;8.266;2022-10-16T02:26:04;6.20;;;2.10;;
6640;SDS011;3356;49.360;8.266;2022-10-16T02:28:12;9.10;;;2.10;;
6640;SDS011;3356;49.360;8.266;2022-10-16T02:30:33;2.97;;;2.30;;
6640;SDS011;3356;49.360;8.266;2022-10-16T02:32:54;6.13;;;2.03;;
6640;SDS011;3356;49.360;8.266;2022-10-16T02:34:58;3.70;;;2.30;;
6640;SDS011;3356;49.360;8.266;2022-10-16T02:37:01;4.57;;;2.57;;
6640;SDS011;3356;49.360;8.266;2022-10-16T02:39:04;4.83;;;2.30;;
6640;SDS011;3356;49.360;8.266;2022-10-16T02:41:06;3.70;;;2.00;;
6640;SDS011;3356;49.360;8.266;2022-10-16T02:43:08;4.30;;;2.03;;
6640;SDS011;3356;49.360;8.266;2022-10-16T02:45:10;5.87;;;1.90;;
6640;SDS011;3356;49.360;8.266;2022-10-16T02:47:11;3.77;;;1.90;;
6640;SDS011;3356;49.360;8.266;2022-10-16T02:49:13;3.07;;;2.00;;
6640;SDS011;3356;49.360;8.266;2022-10-16T02:51:14;3.50;;;2.00;;
6640;SDS011;3356;49.360;8.266;2022-10-16T02:53:15;2.17;;;1.97;;
6640;SDS011;3356;49.360;8.266;2022-10-16T02:55:16;7.70;;;2.27;;
6640;SDS011;3356;49.360;8.266;2022-10-16T02:57:17;2.33;;;2.00;;
6640;SDS011;3356;49.360;8.266;2022-10-16T02:59:19;2.20;;;2.00;;
6640;SDS011;3356;49.360;8.266;2022-10-16T03:01:20;2.70;;;2.10;;
6640;SDS011;3356;49.360;8.266;2022-10-16T03:03:21;4.60;;;1.90;;
6640;SDS011;3356;49.360;8.266;2022-10-16T03:05:22;4.87;;;2.07;;
6640;SDS011;3356;49.360;8.266;2022-10-16T03:07:23;2.10;;;1.60;;
6640;SDS011;3356;49.360;8.266;2022-10-16T03:09:24;5.37;;;2.10;;
6640;SDS011;3356;49.360;8.266;2022-10-16T03:11:25;6.20;;;1.73;;
6640;SDS011;3356;49.360;8.266;2022-10-16T03:13:26;2.50;;;1.93;;
6640;SDS011;3356;49.360;8.266;2022-10-16T03:15:28;3.73;;;2.13;;
6640;SDS011;3356;49.360;8.266;2022-10-16T03:17:29;3.87;;;2.23;;
6640;SDS011;3356;49.360;8.266;2022-10-16T03:19:31;1.80;;;1.70;;
6640;SDS011;3356;49.360;8.266;2022-10-16T03:21:32;3.37;;;2.30;;
6640;SDS011;3356;49.360;8.266;2022-10-16T03:23:34;2.30;;;2.10;;
6640;SDS011;3356;49.360;8.266;2022-10-16T03:25:35;2.67;;;2.43;;
6640;SDS011;3356;49.360;8.266;2022-10-16T03:27:36;2.60;;;1.87;;
6640;SDS011;3356;49.360;8.266;2022-10-16T03:29:37;4.40;;;1.97;;
6640;SDS011;3356;49.360;8.266;2022-10-16T03:31:38;3.80;;;1.90;;
6640;SDS011;3356;49.360;8.266;2022-10-16T03:33:40;4.83;;;1.80;;
6640;SDS011;3356;49.360;8.266;2022-10-16T03:35:41;2.67;;;1.67;;
6640;SDS011;3356;49.360;8.266;2022-10-16T03:37:42;5.37;;;2.00;;
6640;SDS011;3356;49.360;8.266;2022-10-16T03:39:43;5.20;;;2.20;;
6640;SDS011;3356;49.360;8.266;2022-10-16T03:41:44;2.10;;;1.90;;
6640;SDS011;3356;49.360;8.266;2022-10-16T03:43:46;3.27;;;2.07;;
6640;SDS011;3356;49.360;8.266;2022-10-16T03:45:49;2.07;;;1.87;;
6640;SDS011;3356;49.360;8.266;2022-10-16T03:47:51;2.10;;;1.43;;
6640;SDS011;3356;49.360;8.266;2022-10-16T03:49:52;5.40;;;2.30;;
6640;SDS011;3356;49.360;8.266;2022-10-16T03:51:53;3.47;;;1.90;;
6640;SDS011;3356;49.360;8.266;2022-10-16T03:53:55;2.73;;;2.30;;
6640;SDS011;3356;49.360;8.266;2022-10-16T03:55:56;2.10;;;1.90;;
6640;SDS011;3356;49.360;8.266;2022-10-16T03:57:57;4.77;;;1.70;;
6640;SDS011;3356;49.360;8.266;2022-10-16T03:59:58;3.73;;;2.00;;
6640;SDS011;3356;49.360;8.266;2022-10-16T04:01:59;1.60;;;1.50;;
6640;SDS011;3356;49.360;8.266;2022-10-16T04:04:00;2.50;;;1.90;;
6640;SDS011;3356;49.360;8.266;2022-10-16T04:06:01;2.13;;;1.97;;
6640;SDS011;3356;49.360;8.266;2022-10-16T04:08:03;2.60;;;2.40;;
6640;SDS011;3356;49.360;8.266;2022-10-16T04:10:04;4.53;;;2.47;;
6640;SDS011;3356;49.360;8.266;2022-10-16T04:12:06;4.23;;;2.90;;
6640;SDS011;3356;49.360;8.266;2022-10-16T04:14:07;3.00;;;2.23;;
6640;SDS011;3356;49.360;8.266;2022-10-16T04:16:08;3.47;;;2.37;;
6640;SDS011;3356;49.360;8.266;2022-10-16T04:18:09;7.63;;;2.13;;
6640;SDS011;3356;49.360;8.266;2022-10-16T04:20:10;4.97;;;2.43;;
6640;SDS011;3356;49.360;8.266;2022-10-16T04:22:11;3.00;;;2.07;;
6640;SDS011;3356;49.360;8.266;2022-10-16T04:24:12;3.73;;;2.07;;
6640;SDS011;3356;49.360;8.266;2022-10-16T04:26:13;3.33;;;2.57;;
6640;SDS011;3356;49.360;8.266;2022-10-16T04:28:14;2.43;;;2.23;;
6640;SDS011;3356;49.360;8.266;2022-10-16T04:30:15;4.30;;;2.30;;
6640;SDS011;3356;49.360;8.266;2022-10-16T04:32:17;2.07;;;1.90;;
6640;SDS011;3356;49.360;8.266;2022-10-16T04:34:18;5.43;;;2.23;;
6640;SDS011;3356;49.360;8.266;2022-10-16T04:36:19;2.93;;;2.63;;
6640;SDS011;3356;49.360;8.266;2022-10-16T04:38:20;3.70;;;2.40;;
6640;SDS011;3356;49.360;8.266;2022-10-16T04:40:21;2.80;;;2.50;;
6640;SDS011;3356;49.360;8.266;2022-10-16T04:42:22;4.27;;;2.60;;
6640;SDS011;3356;49.360;8.266;2022-10-16T04:44:23;4.57;;;2.60;;
6640;SDS011;3356;49.360;8.266;2022-10-16T04:46:24;3.03;;;2.73;;
6640;SDS011;3356;49.360;8.266;2022-10-16T04:48:25;4.73;;;2.30;;
6640;SDS011;3356;49.360;8.266;2022-10-16T04:50:27;5.57;;;3.10;;
6640;SDS011;3356;49.360;8.266;2022-10-16T04:52:40;3.10;;;2.63;;
6640;SDS011;3356;49.360;8.266;2022-10-16T04:54:41;2.93;;;2.30;;
6640;SDS011;3356;49.360;8.266;2022-10-16T04:56:42;3.53;;;2.10;;
6640;SDS011;3356;49.360;8.266;2022-10-16T04:58:47;7.67;;;2.67;;
6640;SDS011;3356;49.360;8.266;2022-10-16T05:00:48;4.13;;;2.83;;
6640;SDS011;3356;49.360;8.266;2022-10-16T05:02:50;5.60;;;2.77;;
6640;SDS011;3356;49.360;8.266;2022-10-16T05:04:51;3.93;;;2.80;;
6640;SDS011;3356;49.360;8.266;2022-10-16T05:06:52;6.50;;;2.93;;
6640;SDS011;3356;49.360;8.266;2022-10-16T05:08:53;4.43;;;2.70;;
6640;SDS011;3356;49.360;8.266;2022-10-16T05:10:54;8.53;;;3.10;;
6640;SDS011;3356;49.360;8.266;2022-10-16T05:12:55;5.07;;;2.87;;
6640;SDS011;3356;49.360;8.266;2022-10-16T05:14:57;4.60;;;2.77;;
6640;SDS011;3356;49.360;8.266;2022-10-16T05:16:59;6.43;;;3.30;;
6640;SDS011;3356;49.360;8.266;2022-10-16T05:19:00;7.20;;;2.80;;
6640;SDS011;3356;49.360;8.266;2022-10-16T05:21:02;3.97;;;2.90;;
6640;SDS011;3356;49.360;8.266;2022-10-16T05:23:03;3.30;;;3.00;;
6640;SDS011;3356;49.360;8.266;2022-10-16T05:25:04;4.97;;;3.03;;
6640;SDS011;3356;49.360;8.266;2022-10-16T05:27:05;4.67;;;2.70;;
6640;SDS011;3356;49.360;8.266;2022-10-16T05:29:07;2.87;;;2.47;;
6640;SDS011;3356;49.360;8.266;2022-10-16T05:31:08;6.20;;;2.90;;
6640;SDS011;3356;49.360;8.266;2022-10-16T05:33:10;3.97;;;2.40;;
6640;SDS011;3356;49.360;8.266;2022-10-16T05:35:11;5.10;;;3.03;;
6640;SDS011;3356;49.360;8.266;2022-10-16T05:37:12;4.43;;;2.90;;
6640;SDS011;3356;49.360;8.266;2022-10-16T05:39:14;7.03;;;3.17;;
6640;SDS011;3356;49.360;8.266;2022-10-16T05:41:16;7.00;;;2.80;;
6640;SDS011;3356;49.360;8.266;2022-10-16T05:43:21;3.63;;;3.17;;
6640;SDS011;3356;49.360;8.266;2022-10-16T05:45:23;4.70;;;2.93;;
6640;SDS011;3356;49.360;8.266;2022-10-16T05:47:24;3.80;;;3.03;;
6640;SDS011;3356;49.360;8.266;2022-10-16T05:49:25;5.57;;;3.10;;
6640;SDS011;3356;49.360;8.266;2022-10-16T05:51:26;3.77;;;3.23;;
6640;SDS011;3356;49.360;8.266;2022-10-16T05:53:27;6.53;;;3.50;;
6640;SDS011;3356;49.360;8.266;2022-10-16T05:55:30;5.00;;;2.83;;
6640;SDS011;3356;49.360;8.266;2022-10-16T05:57:31;8.03;;;3.30;;
6640;SDS011;3356;49.360;8.266;2022-10-16T05:59:32;5.17;;;2.83;;
6640;SDS011;3356;49.360;8.266;2022-10-16T06:01:33;5.60;;;3.37;;
6640;SDS011;3356;49.360;8.266;2022-10-16T06:03:35;4.27;;;3.30;;
6640;SDS011;3356;49.360;8.266;2022-10-16T06:05:37;6.10;;;3.43;;
6640;SDS011;3356;49.360;8.266;2022-10-16T06:07:38;4.87;;;3.57;;
6640;SDS011;3356;49.360;8.266;2022-10-16T06:09:39;7.77;;;3.97;;
6640;SDS011;3356;49.360;8.266;2022-10-16T06:11:40;5.03;;;3.17;;
6640;SDS011;3356;49.360;8.266;2022-10-16T06:13:41;5.47;;;3.50;;
6640;SDS011;3356;49.360;8.266;2022-10-16T06:15:43;5.93;;;3.50;;
6640;SDS011;3356;49.360;8.266;2022-10-16T06:17:44;4.67;;;3.60;;
6640;SDS011;3356;49.360;8.266;2022-10-16T06:19:45;3.70;;;3.40;;
6640;SDS011;3356;49.360;8.266;2022-10-16T06:21:46;4.00;;;3.20;;
6640;SDS011;3356;49.360;8.266;2022-10-16T06:23:48;5.57;;;2.97;;
6640;SDS011;3356;49.360;8.266;2022-10-16T06:25:49;4.53;;;3.33;;
6640;SDS011;3356;49.360;8.266;2022-10-16T06:27:50;4.47;;;3.30;;
6640;SDS011;3356;49.360;8.266;2022-10-16T06:29:52;5.80;;;3.63;;
6640;SDS011;3356;49.360;8.266;2022-10-16T06:31:53;3.73;;;3.40;;
6640;SDS011;3356;49.360;8.266;2022-10-16T06:33:54;3.83;;;3.10;;
6640;SDS011;3356;49.360;8.266;2022-10-16T06:36:00;4.03;;;3.30;;
6640;SDS011;3356;49.360;8.266;2022-10-16T06:38:03;5.40;;;3.07;;
6640;SDS011;3356;49.360;8.266;2022-10-16T06:40:04;6.10;;;4.37;;
6640;SDS011;3356;49.360;8.266;2022-10-16T06:42:06;4.30;;;3.63;;
6640;SDS011;3356;49.360;8.266;2022-10-16T06:44:10;6.43;;;3.83;;
6640;SDS011;3356;49.360;8.266;2022-10-16T06:46:11;3.87;;;3.47;;
6640;SDS011;3356;49.360;8.266;2022-10-16T06:48:14;4.63;;;3.83;;
6640;SDS011;3356;49.360;8.266;2022-10-16T06:50:15;3.77;;;3.40;;
6640;SDS011;3356;49.360;8.266;2022-10-16T06:52:16;7.33;;;3.90;;
6640;SDS011;3356;49.360;8.266;2022-10-16T06:54:17;4.47;;;3.70;;
6640;SDS011;3356;49.360;8.266;2022-10-16T06:56:20;13.67;;;4.40;;
6640;SDS011;3356;49.360;8.266;2022-10-16T06:58:22;11.07;;;4.93;;
6640;SDS011;3356;49.360;8.266;2022-10-16T07:00:24;5.43;;;4.00;;
6640;SDS011;3356;49.360;8.266;2022-10-16T07:02:25;6.13;;;4.37;;
6640;SDS011;3356;49.360;8.266;2022-10-16T07:04:26;4.30;;;3.67;;
6640;SDS011;3356;49.360;8.266;2022-10-16T07:06:30;8.00;;;3.20;;
6640;SDS011;3356;49.360;8.266;2022-10-16T07:08:32;6.87;;;4.10;;
6640;SDS011;3356;49.360;8.266;2022-10-16T07:10:38;5.77;;;3.20;;
6640;SDS011;3356;49.360;8.266;2022-10-16T07:12:39;4.87;;;3.37;;
6640;SDS011;3356;49.360;8.266;2022-10-16T07:14:41;5.40;;;3.60;;
6640;SDS011;3356;49.360;8.266;2022-10-16T07:16:42;5.43;;;3.60;;
6640;SDS011;3356;49.360;8.266;2022-10-16T07:18:44;6.63;;;2.93;;
6640;SDS011;3356;49.360;8.266;2022-10-16T07:20:47;3.30;;;3.00;;
6640;SDS011;3356;49.360;8.266;2022-10-16T07:22:48;3.57;;;2.50;;
6640;SDS011;3356;49.360;8.266;2022-10-16T07:24:49;5.77;;;3.17;;
6640;SDS011;3356;49.360;8.266;2022-10-16T07:26:52;4.77;;;3.37;;
6640;SDS011;3356;49.360;8.266;2022-10-16T07:28:53;4.07;;;3.00;;
6640;SDS011;3356;49.360;8.266;2022-10-16T07:30:54;7.40;;;3.73;;
6640;SDS011;3356;49.360;8.266;2022-10-16T07:32:55;5.03;;;2.90;;
6640;SDS011;3356;49.360;8.266;2022-10-16T07:34:56;6.77;;;3.00;;
6640;SDS011;3356;49.360;8.266;2022-10-16T07:36:58;4.90;;;3.10;;
6640;SDS011;3356;49.360;8.266;2022-10-16T07:38:59;5.90;;;3.60;;
6640;SDS011;3356;49.360;8.266;2022-10-16T07:41:01;5.83;;;3.33;;
6640;SDS011;3356;49.360;8.266;2022-10-16T07:43:04;3.17;;;2.93;;
6640;SDS011;3356;49.360;8.266;2022-10-16T07:45:06;5.13;;;3.33;;
6640;SDS011;3356;49.360;8.266;2022-10-16T07:47:07;4.00;;;2.83;;
6640;SDS011;3356;49.360;8.266;2022-10-16T07:49:09;6.10;;;3.43;;
6640;SDS011;3356;49.360;8.266;2022-10-16T07:51:11;5.10;;;3.70;;
6640;SDS011;3356;49.360;8.266;2022-10-16T07:53:12;3.90;;;3.50;;
6640;SDS011;3356;49.360;8.266;2022-10-16T07:55:14;6.43;;;4.20;;
6640;SDS011;3356;49.360;8.266;2022-10-16T07:57:15;5.10;;;3.33;;
6640;SDS011;3356;49.360;8.266;2022-10-16T07:59:19;5.37;;;3.53;;
6640;SDS011;3356;49.360;8.266;2022-10-16T08:01:21;5.97;;;3.80;;
6640;SDS011;3356;49.360;8.266;2022-10-16T08:03:22;4.40;;;2.90;;
6640;SDS011;3356;49.360;8.266;2022-10-16T08:05:23;3.60;;;3.30;;
6640;SDS011;3356;49.360;8.266;2022-10-16T08:07:25;8.40;;;4.17;;
6640;SDS011;3356;49.360;8.266;2022-10-16T08:09:26;7.53;;;3.50;;
6640;SDS011;3356;49.360;8.266;2022-10-16T08:11:27;5.07;;;4.03;;
6640;SDS011;3356;49.360;8.266;2022-10-16T08:13:28;5.50;;;3.60;;
6640;SDS011;3356;49.360;8.266;2022-10-16T08:15:29;5.73;;;3.40;;
6640;SDS011;3356;49.360;8.266;2022-10-16T08:17:30;4.20;;;3.72;;
6640;SDS011;3356;49.360;8.266;2022-10-16T08:19:32;5.77;;;3.40;;
6640;SDS011;3356;49.360;8.266;2022-10-16T08:26:05;3.27;;;2.97;;
6640;SDS011;3356;49.360;8.266;2022-10-16T08:28:09;4.13;;;3.60;;
6640;SDS011;3356;49.360;8.266;2022-10-16T08:30:11;10.73;;;3.13;;
6640;SDS011;3356;49.360;8.266;2022-10-16T08:32:13;5.37;;;3.13;;
6640;SDS011;3356;49.360;8.266;2022-10-16T08:34:14;4.10;;;3.20;;
6640;SDS011;3356;49.360;8.266;2022-10-16T08:36:15;4.60;;;3.47;;
6640;SDS011;3356;49.360;8.266;2022-10-16T08:38:17;6.47;;;3.00;;
6640;SDS011;3356;49.360;8.266;2022-10-16T08:40:28;3.73;;;3.23;;
6640;SDS011;3356;49.360;8.266;2022-10-16T08:49:53;3.00;;;2.70;;
6640;SDS011;3356;49.360;8.266;2022-10-16T08:51:57;5.83;;;2.20;;
6640;SDS011;3356;49.360;8.266;2022-10-16T08:53:59;5.00;;;3.30;;
6640;SDS011;3356;49.360;8.266;2022-10-16T08:56:04;11.17;;;6.57;;
6640;SDS011;3356;49.360;8.266;2022-10-16T08:58:10;5.73;;;4.40;;
6640;SDS011;3356;49.360;8.266;2022-10-16T09:00:14;4.63;;;3.13;;
6640;SDS011;3356;49.360;8.266;2022-10-16T09:02:20;6.03;;;3.20;;
6640;SDS011;3356;49.360;8.266;2022-10-16T09:04:45;3.10;;;2.80;;
6640;SDS011;3356;49.360;8.266;2022-10-16T09:09:46;4.47;;;2.50;;
6640;SDS011;3356;49.360;8.266;2022-10-16T09:16:54;3.63;;;2.67;;
6640;SDS011;3356;49.360;8.266;2022-10-16T09:19:03;4.67;;;2.97;;
6640;SDS011;3356;49.360;8.266;2022-10-16T09:21:18;3.67;;;2.53;;
6640;SDS011;3356;49.360;8.266;2022-10-16T09:23:30;3.43;;;2.70;;
6640;SDS011;3356;49.360;8.266;2022-10-16T09:25:35;5.33;;;2.80;;
6640;SDS011;3356;49.360;8.266;2022-10-16T09:27:40;3.87;;;2.53;;
6640;SDS011;3356;49.360;8.266;2022-10-16T09:29:42;4.00;;;2.50;;
6640;SDS011;3356;49.360;8.266;2022-10-16T09:31:43;4.33;;;2.00;;
6640;SDS011;3356;49.360;8.266;2022-10-16T09:33:45;6.00;;;2.53;;
6640;SDS011;3356;49.360;8.266;2022-10-16T09:35:54;2.33;;;2.13;;
6640;SDS011;3356;49.360;8.266;2022-10-16T09:37:58;6.93;;;2.80;;
6640;SDS011;3356;49.360;8.266;2022-10-16T09:39:59;4.27;;;2.90;;
6640;SDS011;3356;49.360;8.266;2022-10-16T09:42:00;3.13;;;2.20;;
6640;SDS011;3356;49.360;8.266;2022-10-16T09:44:05;5.07;;;2.40;;
6640;SDS011;3356;49.360;8.266;2022-10-16T09:46:33;3.77;;;2.43;;
6640;SDS011;3356;49.360;8.266;2022-10-16T09:48:39;4.40;;;2.57;;
6640;SDS011;3356;49.360;8.266;2022-10-16T09:50:54;5.27;;;2.30;;
6640;SDS011;3356;49.360;8.266;2022-10-16T09:53:06;1.93;;;1.70;;
6640;SDS011;3356;49.360;8.266;2022-10-16T09:55:16;4.30;;;1.83;;
6640;SDS011;3356;49.360;8.266;2022-10-16T09:57:18;2.27;;;2.00;;
6640;SDS011;3356;49.360;8.266;2022-10-16T09:59:21;4.97;;;2.47;;
6640;SDS011;3356;49.360;8.266;2022-10-16T10:01:29;2.73;;;2.53;;
6640;SDS011;3356;49.360;8.266;2022-10-16T10:03:40;5.90;;;2.50;;
6640;SDS011;3356;49.360;8.266;2022-10-16T10:05:42;4.00;;;2.03;;
6640;SDS011;3356;49.360;8.266;2022-10-16T10:08:12;5.53;;;1.93;;
6640;SDS011;3356;49.360;8.266;2022-10-16T10:10:24;4.87;;;1.80;;
6640;SDS011;3356;49.360;8.266;2022-10-16T10:12:31;3.90;;;1.53;;
6640;SDS011;3356;49.360;8.266;2022-10-16T10:14:36;2.37;;;1.80;;
6640;SDS011;3356;49.360;8.266;2022-10-16T10:16:40;2.87;;;1.90;;
6640;SDS011;3356;49.360;8.266;2022-10-16T10:18:41;1.90;;;1.77;;
6640;SDS011;3356;49.360;8.266;2022-10-16T10:20:43;3.80;;;1.90;;
6640;SDS011;3356;49.360;8.266;2022-10-16T10:22:45;4.40;;;1.40;;
6640;SDS011;3356;49.360;8.266;2022-10-16T10:27:10;1.80;;;1.70;;
6640;SDS011;3356;49.360;8.266;2022-10-16T10:36:40;4.83;;;1.60;;
6640;SDS011;3356;49.360;8.266;2022-10-16T10:39:01;5.60;;;1.60;;
6640;SDS011;3356;49.360;8.266;2022-10-16T10:41:24;4.13;;;1.47;;
6640;SDS011;3356;49.360;8.266;2022-10-16T10:43:31;2.17;;;1.50;;
6640;SDS011;3356;49.360;8.266;2022-10-16T10:45:48;4.13;;;1.47;;
6640;SDS011;3356;49.360;8.266;2022-10-16T10:48:06;2.07;;;1.87;;
6640;SDS011;3356;49.360;8.266;2022-10-16T10:52:41;2.43;;;1.80;;
6640;SDS011;3356;49.360;8.266;2022-10-16T10:57:29;5.30;;;1.70;;
6640;SDS011;3356;49.360;8.266;2022-10-16T11:07:02;2.03;;;1.67;;
6640;SDS011;3356;49.360;8.266;2022-10-16T11:16:06;4.03;;;1.53;;
6640;SDS011;3356;49.360;8.266;2022-10-16T11:20:45;1.90;;;1.80;;
6640;SDS011;3356;49.360;8.266;2022-10-16T11:22:53;4.30;;;1.50;;
6640;SDS011;3356;49.360;8.266;2022-10-16T11:25:11;2.63;;;1.60;;
6640;SDS011;3356;49.360;8.266;2022-10-16T11:27:40;4.93;;;1.87;;
6640;SDS011;3356;49.360;8.266;2022-10-16T11:29:53;2.00;;;1.80;;
6640;SDS011;3356;49.360;8.266;2022-10-16T11:32:06;2.30;;;1.30;;
6640;SDS011;3356;49.360;8.266;2022-10-16T11:34:40;1.70;;;1.60;;
6640;SDS011;3356;49.360;8.266;2022-10-16T11:36:56;1.50;;;1.40;;
6640;SDS011;3356;49.360;8.266;2022-10-16T11:39:34;5.33;;;1.83;;
6640;SDS011;3356;49.360;8.266;2022-10-16T11:41:44;1.70;;;1.60;;
6640;SDS011;3356;49.360;8.266;2022-10-16T11:46:52;3.63;;;1.50;;
6640;SDS011;3356;49.360;8.266;2022-10-16T11:49:09;1.60;;;1.50;;
6640;SDS011;3356;49.360;8.266;2022-10-16T11:55:51;1.70;;;1.60;;
6640;SDS011;3356;49.360;8.266;2022-10-16T11:57:54;2.13;;;1.80;;
6640;SDS011;3356;49.360;8.266;2022-10-16T12:04:30;5.03;;;2.13;;
6640;SDS011;3356;49.360;8.266;2022-10-16T12:08:51;1.90;;;1.73;;
6640;SDS011;3356;49.360;8.266;2022-10-16T12:10:52;2.50;;;1.80;;
6640;SDS011;3356;49.360;8.266;2022-10-16T12:12:55;3.80;;;1.47;;
6640;SDS011;3356;49.360;8.266;2022-10-16T12:15:00;4.07;;;1.90;;
6640;SDS011;3356;49.360;8.266;2022-10-16T12:17:23;2.60;;;2.17;;
6640;SDS011;3356;49.360;8.266;2022-10-16T12:19:30;3.90;;;1.80;;
6640;SDS011;3356;49.360;8.266;2022-10-16T12:21:32;2.50;;;2.30;;
6640;SDS011;3356;49.360;8.266;2022-10-16T12:23:36;2.43;;;1.87;;
6640;SDS011;3356;49.360;8.266;2022-10-16T12:25:39;3.13;;;1.77;;
6640;SDS011;3356;49.360;8.266;2022-10-16T12:27:52;4.13;;;1.70;;
6640;SDS011;3356;49.360;8.266;2022-10-16T12:29:59;4.87;;;2.00;;
6640;SDS011;3356;49.360;8.266;2022-10-16T12:34:29;3.07;;;1.93;;
6640;SDS011;3356;49.360;8.266;2022-10-16T12:36:37;3.57;;;1.60;;
6640;SDS011;3356;49.360;8.266;2022-10-16T12:38:44;1.43;;;1.37;;
6640;SDS011;3356;49.360;8.266;2022-10-16T12:41:04;2.17;;;1.97;;
6640;SDS011;3356;49.360;8.266;2022-10-16T12:49:36;1.53;;;1.43;;
6640;SDS011;3356;49.360;8.266;2022-10-16T12:51:39;1.80;;;1.53;;
6640;SDS011;3356;49.360;8.266;2022-10-16T12:53:41;3.60;;;1.80;;
6640;SDS011;3356;49.360;8.266;2022-10-16T12:55:43;1.80;;;1.70;;
6640;SDS011;3356;49.360;8.266;2022-10-16T12:57:57;3.73;;;2.07;;
6640;SDS011;3356;49.360;8.266;2022-10-16T13:10:17;2.43;;;1.93;;
6640;SDS011;3356;49.360;8.266;2022-10-16T13:15:19;2.93;;;1.90;;
6640;SDS011;3356;49.360;8.266;2022-10-16T13:17:34;1.90;;;1.60;;
6640;SDS011;3356;49.360;8.266;2022-10-16T13:24:46;4.10;;;2.10;;
6640;SDS011;3356;49.360;8.266;2022-10-16T13:26:52;3.93;;;2.03;;
6640;SDS011;3356;49.360;8.266;2022-10-16T13:29:01;3.37;;;2.00;;
6640;SDS011;3356;49.360;8.266;2022-10-16T13:31:02;2.40;;;2.20;;
6640;SDS011;3356;49.360;8.266;2022-10-16T13:33:12;2.20;;;2.00;;
6640;SDS011;3356;49.360;8.266;2022-10-16T13:35:23;1.87;;;1.77;;
6640;SDS011;3356;49.360;8.266;2022-10-16T13:37:26;3.13;;;2.20;;
6640;SDS011;3356;49.360;8.266;2022-10-16T13:39:29;5.10;;;1.83;;
6640;SDS011;3356;49.360;8.266;2022-10-16T13:41:30;4.03;;;2.47;;
6640;SDS011;3356;49.360;8.266;2022-10-16T13:43:35;2.53;;;2.10;;
6640;SDS011;3356;49.360;8.266;2022-10-16T13:45:52;3.10;;;2.20;;
6640;SDS011;3356;49.360;8.266;2022-10-16T13:48:05;6.67;;;2.63;;
6640;SDS011;3356;49.360;8.266;2022-10-16T13:50:11;1.93;;;1.83;;
6640;SDS011;3356;49.360;8.266;2022-10-16T13:52:16;4.07;;;2.13;;
6640;SDS011;3356;49.360;8.266;2022-10-16T13:54:21;2.90;;;1.93;;
6640;SDS011;3356;49.360;8.266;2022-10-16T13:56:27;4.50;;;2.07;;
6640;SDS011;3356;49.360;8.266;2022-10-16T13:58:30;5.03;;;2.53;;
6640;SDS011;3356;49.360;8.266;2022-10-16T14:00:31;4.63;;;2.30;;
6640;SDS011;3356;49.360;8.266;2022-10-16T14:02:33;3.63;;;2.27;;
6640;SDS011;3356;49.360;8.266;2022-10-16T14:04:38;2.93;;;2.47;;
6640;SDS011;3356;49.360;8.266;2022-10-16T14:06:41;2.10;;;1.90;;
6640;SDS011;3356;49.360;8.266;2022-10-16T14:08:48;4.33;;;2.30;;
6640;SDS011;3356;49.360;8.266;2022-10-16T14:10:56;3.30;;;2.20;;
6640;SDS011;3356;49.360;8.266;2022-10-16T14:12:59;4.27;;;2.23;;
6640;SDS011;3356;49.360;8.266;2022-10-16T14:15:03;4.47;;;2.10;;
6640;SDS011;3356;49.360;8.266;2022-10-16T14:17:04;3.80;;;2.57;;
6640;SDS011;3356;49.360;8.266;2022-10-16T14:19:06;2.07;;;1.87;;
6640;SDS011;3356;49.360;8.266;2022-10-16T14:21:13;4.40;;;2.50;;
6640;SDS011;3356;49.360;8.266;2022-10-16T14:23:23;2.50;;;2.30;;
6640;SDS011;3356;49.360;8.266;2022-10-16T14:25:32;4.00;;;2.40;;
6640;SDS011;3356;49.360;8.266;2022-10-16T14:27:34;4.30;;;2.37;;
6640;SDS011;3356;49.360;8.266;2022-10-16T14:29:37;3.93;;;2.27;;
6640;SDS011;3356;49.360;8.266;2022-10-16T14:31:38;6.13;;;2.90;;
6640;SDS011;3356;49.360;8.266;2022-10-16T14:33:40;3.13;;;2.83;;
6640;SDS011;3356;49.360;8.266;2022-10-16T14:35:41;5.37;;;2.43;;
6640;SDS011;3356;49.360;8.266;2022-10-16T14:37:44;5.97;;;2.20;;
6640;SDS011;3356;49.360;8.266;2022-10-16T14:39:48;5.83;;;2.50;;
6640;SDS011;3356;49.360;8.266;2022-10-16T14:41:51;5.03;;;2.30;;